Time;durP1;ratioP1;P1;durP2;ratioP2;P2;SDS_P1;SDS_P2;PMS_P1;PMS_P2;Temp;Humidity;BMP_temperature;BMP_pressure;BME280_temperature;BME280_humidity;BME280_pressure;Samples;Min_cycle;Max_cycle;Signal;HPM_P1;HPM_P2
2023/01/25 00:00:46;;;;;;;;;46.00;38.00;;;;;4.81;69.32;102886.34;5059633;28;46281;-55
2023/01/25 00:03:12;;;;;;;;;39.75;30.00;;;;;4.79;68.67;102881.06;5057773;28;45460;-54
2023/01/25 00:05:37;;;;;;;;;40.50;35.50;;;;;4.82;69.47;102885.47;5056022;28;45348;-58
2023/01/25 00:08:03;;;;;;;;;52.75;44.25;;;;;4.90;68.62;102882.00;5057661;28;45524;-55
2023/01/25 00:10:28;;;;;;;;;56.00;43.00;;;;;4.96;68.93;102883.81;5056892;28;48133;-57
2023/01/25 00:12:55;;;;;;;;;62.50;44.00;;;;;4.98;68.32;102884.69;5058197;28;45263;-59
2023/01/25 00:15:21;;;;;;;;;48.50;43.00;;;;;4.95;69.16;102882.03;5058609;28;45449;-55
2023/01/25 00:17:47;;;;;;;;;45.25;39.75;;;;;4.84;68.74;102870.56;5069691;28;45507;-58
2023/01/25 00:20:12;;;;;;;;;60.75;43.00;;;;;4.89;69.19;102877.59;5072513;28;46363;-58
2023/01/25 00:22:38;;;;;;;;;49.50;42.25;;;;;4.94;68.17;102880.25;5058045;28;45297;-59
2023/01/25 00:25:04;;;;;;;;;54.50;45.25;;;;;4.92;68.61;102866.19;5058007;28;45393;-59
2023/01/25 00:27:29;;;;;;;;;57.25;45.50;;;;;4.99;68.00;102874.13;5058249;28;45295;-57
2023/01/25 00:29:55;;;;;;;;;49.00;42.50;;;;;4.98;68.85;102867.09;5057733;28;45976;-56
2023/01/25 00:32:20;;;;;;;;;49.00;40.50;;;;;5.04;67.91;102871.50;5056913;28;45464;-57
2023/01/25 00:34:48;;;;;;;;;50.75;43.75;;;;;5.03;67.94;102872.38;5058023;28;45445;-55
2023/01/25 00:37:22;;;;;;;;;30.75;26.50;;;;;5.11;68.79;102878.56;5056807;28;45340;-55
2023/01/25 00:39:48;;;;;;;;;45.75;31.75;;;;;5.10;68.64;102875.94;5057982;28;45400;-57
2023/01/25 00:42:16;;;;;;;;;58.50;46.00;;;;;5.05;68.92;102873.25;5052462;28;45467;-58
2023/01/25 00:44:42;;;;;;;;;56.50;44.00;;;;;5.02;68.12;102878.53;5053066;28;45408;-58
2023/01/25 00:47:09;;;;;;;;;50.00;43.50;;;;;4.95;68.43;102855.69;5037931;28;45315;-59
2023/01/25 00:49:36;;;;;;;;;56.00;40.75;;;;;5.07;68.17;102874.16;5052097;28;46145;-62
2023/01/25 00:52:03;;;;;;;;;67.50;43.00;;;;;5.12;67.78;102869.78;5077838;27;45242;-59
2023/01/25 00:54:29;;;;;;;;;48.75;42.50;;;;;5.13;68.09;102871.53;5066277;27;45482;-53
2023/01/25 00:56:55;;;;;;;;;61.75;43.00;;;;;5.19;68.59;102861.00;5057905;28;45602;-56
2023/01/25 00:59:22;;;;;;;;;51.75;44.00;;;;;5.21;67.56;102864.53;5057078;28;46294;-56
2023/01/25 01:01:49;;;;;;;;;50.75;41.25;;;;;5.06;68.50;102864.47;5057652;28;45424;-55
2023/01/25 01:04:14;;;;;;;;;51.00;34.25;;;;;4.90;69.21;102857.41;5072330;28;45481;-57
2023/01/25 01:06:40;;;;;;;;;54.75;39.25;;;;;4.79;69.46;102856.47;5057336;28;45596;-52
2023/01/25 01:09:10;;;;;;;;;51.25;40.25;;;;;4.77;68.68;102839.78;5057059;28;45298;-56
2023/01/25 01:11:35;;;;;;;;;47.00;36.75;;;;;5.00;67.96;102864.47;5055802;28;45363;-54
2023/01/25 01:14:01;;;;;;;;;51.00;38.25;;;;;5.05;68.43;102865.34;5056962;28;45415;-59
2023/01/25 01:16:26;;;;;;;;;54.75;42.50;;;;;5.04;67.89;102850.41;5057291;28;45546;-61
2023/01/25 01:18:52;;;;;;;;;45.00;40.00;;;;;5.10;68.78;102846.94;5077160;28;46111;-59
2023/01/25 01:21:18;;;;;;;;;61.25;43.00;;;;;5.08;68.37;102840.75;5077848;27;45389;-52
2023/01/25 01:23:43;;;;;;;;;45.50;41.50;;;;;5.00;68.50;102843.38;5077176;28;45353;-61
2023/01/25 01:26:11;;;;;;;;;60.75;45.50;;;;;5.11;67.66;102861.88;5077403;27;45426;-61
2023/01/25 01:28:38;;;;;;;;;56.75;39.00;;;;;5.15;68.59;102861.00;5070132;27;45449;-59
2023/01/25 01:31:06;;;;;;;;;44.25;38.50;;;;;5.07;67.83;102838.97;5056265;28;45244;-57
2023/01/25 01:33:31;;;;;;;;;37.25;36.50;;;;;5.16;67.45;102853.06;5054678;28;45488;-58
2023/01/25 01:35:57;;;;;;;;;48.00;42.50;;;;;5.18;67.82;102858.34;5056460;28;45393;-60
2023/01/25 01:38:23;;;;;;;;;56.25;46.50;;;;;5.17;67.35;102854.84;5055235;28;45465;-59
2023/01/25 01:40:49;;;;;;;;;56.25;42.25;;;;;4.93;68.77;102852.13;5074796;28;45292;-58
2023/01/25 01:43:21;;;;;;;;;61.25;44.25;;;;;4.91;68.74;102859.16;5058090;28;45438;-55
2023/01/25 01:45:46;;;;;;;;;65.75;47.75;;;;;4.80;69.08;102856.47;5059158;27;45431;-60
2023/01/25 01:48:44;;;;;;;;;65.25;49.75;;;;;4.73;69.36;102863.50;5056787;28;45866;-57
2023/01/25 01:51:27;;;;;;;;;68.50;48.25;;;;;4.74;69.10;102862.63;5053468;28;45231;-60
2023/01/25 01:54:01;;;;;;;;;60.75;49.75;;;;;4.79;70.01;102869.66;5055422;28;45456;-58
2023/01/25 01:56:54;;;;;;;;;65.50;49.75;;;;;4.75;69.79;102863.50;5056816;28;45440;-55
2023/01/25 01:59:24;;;;;;;;;53.00;40.25;;;;;4.64;69.88;102866.06;5056918;28;45516;-57
2023/01/25 02:01:50;;;;;;;;;66.50;51.00;;;;;4.69;69.23;102864.34;5055817;28;45317;-59
2023/01/25 02:04:19;;;;;;;;;62.25;47.50;;;;;4.68;70.40;102873.13;5056824;28;45180;-57
2023/01/25 02:06:54;;;;;;;;;58.25;46.75;;;;;4.58;70.08;102863.44;5056655;28;46141;-54
2023/01/25 02:09:22;;;;;;;;;62.50;46.00;;;;;4.55;70.11;102879.19;5055692;28;45462;-53
2023/01/25 02:11:50;;;;;;;;;45.50;39.25;;;;;4.45;70.84;102874.78;5056155;28;45470;-58
2023/01/25 02:14:17;;;;;;;;;47.00;31.75;;;;;4.41;71.35;102878.25;5054839;28;45287;-57
2023/01/25 02:16:43;;;;;;;;;58.25;49.75;;;;;4.34;70.92;102860.66;5071838;28;45513;-57
2023/01/25 02:19:16;;;;;;;;;63.00;50.25;;;;;4.39;71.34;102870.34;5055163;28;45284;-56
2023/01/25 02:21:46;;;;;;;;;59.25;47.25;;;;;4.45;70.42;102882.69;5056442;28;45319;-58
2023/01/25 02:24:22;;;;;;;;;68.00;51.00;;;;;4.43;70.50;102869.50;5057221;28;45505;-54
2023/01/25 02:26:48;;;;;;;;;58.00;44.50;;;;;4.51;70.71;102877.44;5058260;27;45326;-61
2023/01/25 02:29:15;;;;;;;;;65.25;46.50;;;;;4.42;70.75;102878.25;5057814;28;45373;-57
2023/01/25 02:31:44;;;;;;;;;65.25;47.50;;;;;4.38;71.12;102878.22;5057533;28;45338;-61
2023/01/25 02:34:09;;;;;;;;;62.50;50.00;;;;;4.46;70.99;102873.91;5056591;28;45409;-61
2023/01/25 02:36:35;;;;;;;;;67.00;51.00;;;;;4.50;70.58;102878.31;5054107;28;45575;-58
2023/01/25 02:39:07;;;;;;;;;61.25;48.25;;;;;4.42;71.51;102870.34;5056050;28;45482;-59
2023/01/25 02:41:37;;;;;;;;;64.25;49.25;;;;;4.45;71.23;102880.03;5056114;28;45237;-58
2023/01/25 02:44:09;;;;;;;;;57.75;44.50;;;;;4.43;71.56;102885.31;5056040;28;45389;-60
2023/01/25 02:46:37;;;;;;;;;59.00;48.50;;;;;4.44;71.23;102878.28;5058018;28;45591;-58
2023/01/25 02:49:04;;;;;;;;;68.75;51.00;;;;;4.42;71.75;102882.63;5055482;28;46001;-59
2023/01/25 02:51:32;;;;;;;;;58.75;46.00;;;;;4.45;71.66;102882.69;5053410;28;45470;-57
2023/01/25 02:53:59;;;;;;;;;62.75;49.25;;;;;4.53;71.34;102870.41;5054270;28;45461;-56
2023/01/25 02:56:25;;;;;;;;;66.75;55.00;;;;;4.49;71.31;102879.19;5055851;28;45579;-58
2023/01/25 02:58:51;;;;;;;;;54.50;43.50;;;;;4.51;72.65;102872.16;5054880;28;45500;-57
2023/01/25 03:01:17;;;;;;;;;66.75;46.00;;;;;4.53;71.89;102872.16;5055231;28;45421;-55
2023/01/25 03:03:42;;;;;;;;;66.00;49.75;;;;;4.47;72.34;102866.88;5055113;28;45472;-58
2023/01/25 03:06:08;;;;;;;;;59.25;47.00;;;;;4.47;72.11;102854.56;5055494;28;45407;-58
2023/01/25 03:08:34;;;;;;;;;60.50;45.75;;;;;4.48;71.91;102848.44;5057180;28;45525;-56
2023/01/25 03:11:01;;;;;;;;;62.50;48.75;;;;;4.58;72.23;102860.78;5058151;28;45342;-58
2023/01/25 03:13:27;;;;;;;;;68.00;54.00;;;;;4.52;72.31;102859.88;5059136;28;45344;-58
2023/01/25 03:15:58;;;;;;;;;64.75;51.00;;;;;4.37;72.80;102871.19;5057820;28;45575;-55
2023/01/25 03:18:24;;;;;;;;;69.50;49.50;;;;;4.30;72.68;102869.41;5059083;28;45833;-52
2023/01/25 03:20:50;;;;;;;;;63.75;52.25;;;;;4.24;73.03;102864.09;5059138;28;45360;-56
2023/01/25 03:23:15;;;;;;;;;52.25;43.50;;;;;4.28;73.16;102865.88;5055357;28;45491;-60
2023/01/25 03:25:41;;;;;;;;;73.25;52.00;;;;;4.27;73.09;102870.25;5046995;28;45610;-57
2023/01/25 03:28:06;;;;;;;;;69.00;51.50;;;;;4.25;73.31;102865.84;5058357;28;45423;-60
2023/01/25 03:30:32;;;;;;;;;70.75;50.50;;;;;4.26;73.03;102868.50;5057351;28;45503;-60
2023/01/25 03:32:57;;;;;;;;;60.00;41.00;;;;;4.35;73.25;102871.19;5059106;28;45331;-57
2023/01/25 03:35:23;;;;;;;;;62.75;44.50;;;;;4.25;73.48;102850.06;5057615;28;45574;-56
2023/01/25 03:37:51;;;;;;;;;60.00;45.50;;;;;4.25;73.97;102864.09;5056361;28;46462;-57
2023/01/25 03:40:16;;;;;;;;;70.50;49.50;;;;;4.20;74.03;102864.97;5058379;28;45447;-59
2023/01/25 03:42:42;;;;;;;;;63.50;47.50;;;;;4.09;74.64;102860.50;5056885;28;45415;-57
2023/01/25 03:45:08;;;;;;;;;57.50;45.75;;;;;4.05;75.02;102855.22;5057422;28;45608;-52
2023/01/25 03:47:33;;;;;;;;;68.25;51.75;;;;;4.09;75.47;102865.75;5089898;27;45505;-60
2023/01/25 03:49:59;;;;;;;;;53.50;47.25;;;;;4.11;74.61;102864.00;5057276;28;45405;-60
2023/01/25 03:52:26;;;;;;;;;56.50;49.50;;;;;4.17;74.62;102868.47;5058383;28;45345;-61
2023/01/25 03:54:51;;;;;;;;;68.00;49.00;;;;;4.15;74.96;102854.38;5055096;28;45556;-59
2023/01/25 03:57:17;;;;;;;;;51.25;47.75;;;;;4.07;75.53;102854.34;5058538;28;45250;-61
2023/01/25 03:59:42;;;;;;;;;58.50;46.75;;;;;4.11;74.64;102853.47;5057704;28;45374;-61
2023/01/25 04:02:08;;;;;;;;;65.25;50.00;;;;;4.08;75.30;102860.47;5057004;28;45273;-61
2023/01/25 04:04:34;;;;;;;;;65.50;46.75;;;;;4.09;74.96;102852.59;5073885;27;47098;-58
2023/01/25 04:06:59;;;;;;;;;63.00;45.75;;;;;4.02;75.48;102837.59;5057550;28;46353;-57
2023/01/25 04:09:25;;;;;;;;;68.00;51.25;;;;;3.82;75.39;102812.91;5057076;28;45369;-57
2023/01/25 04:11:50;;;;;;;;;62.25;50.50;;;;;3.88;75.80;102826.09;5057970;28;45363;-54
2023/01/25 04:14:16;;;;;;;;;65.50;51.25;;;;;3.99;76.44;102858.66;5057367;28;45566;-57
2023/01/25 04:16:41;;;;;;;;;61.50;46.50;;;;;3.96;76.00;102848.09;5058043;28;45516;-61
2023/01/25 04:19:06;;;;;;;;;68.75;51.25;;;;;3.94;76.99;102849.84;5056803;28;45427;-63
2023/01/25 04:21:32;;;;;;;;;44.00;41.75;;;;;3.87;76.59;102848.03;5058343;28;45350;-54
2023/01/25 04:23:57;;;;;;;;;66.75;53.25;;;;;3.87;76.60;102848.03;5057418;28;45413;-60
2023/01/25 04:26:23;;;;;;;;;64.00;44.75;;;;;3.85;77.19;102855.03;5058562;28;45377;-61
2023/01/25 04:28:49;;;;;;;;;65.50;52.50;;;;;3.74;76.93;102840.91;5057716;28;45599;-58
2023/01/25 04:31:14;;;;;;;;;68.25;53.50;;;;;3.75;77.10;102832.13;5058552;28;45295;-57
2023/01/25 04:33:39;;;;;;;;;72.25;53.75;;;;;3.84;76.63;102851.53;5073284;28;45597;-55
2023/01/25 04:36:05;;;;;;;;;66.25;49.25;;;;;3.87;76.76;102855.03;5078031;27;45400;-59
2023/01/25 04:38:31;;;;;;;;;68.25;49.25;;;;;3.90;77.02;102836.63;5073589;27;45218;-55
2023/01/25 04:40:56;;;;;;;;;66.75;48.25;;;;;3.96;76.57;102848.09;5057515;28;45461;-59
2023/01/25 04:43:22;;;;;;;;;71.50;49.00;;;;;3.97;77.07;102851.63;5059568;28;45299;-56
2023/01/25 04:45:47;;;;;;;;;64.75;49.00;;;;;3.87;77.74;102845.41;5057859;28;45228;-59
2023/01/25 04:48:14;;;;;;;;;67.50;47.25;;;;;3.80;77.27;102835.72;5057786;28;45362;-56
2023/01/25 04:50:40;;;;;;;;;52.25;35.50;;;;;3.83;76.79;102844.50;5057987;28;45361;-56
2023/01/25 04:53:07;;;;;;;;;58.00;47.50;;;;;3.73;77.05;102840.03;5055147;28;46950;-58
2023/01/25 04:55:33;;;;;;;;;60.00;47.75;;;;;3.72;77.25;102832.13;5056409;28;46446;-55
2023/01/25 04:57:58;;;;;;;;;54.50;40.75;;;;;3.78;76.97;102840.97;5055787;28;45303;-54
2023/01/25 05:00:24;;;;;;;;;56.25;48.25;;;;;3.83;76.50;102841.00;5055583;28;45461;-59
2023/01/25 05:02:49;;;;;;;;;54.00;43.75;;;;;3.79;77.19;102840.09;5055604;28;45454;-61
2023/01/25 05:05:15;;;;;;;;;42.75;40.75;;;;;3.79;76.68;102839.22;5055801;28;45378;-58
2023/01/25 05:07:41;;;;;;;;;66.25;47.50;;;;;3.81;76.56;102842.75;5056617;28;45277;-60
2023/01/25 05:10:07;;;;;;;;;66.00;48.50;;;;;3.80;76.62;102843.59;5063178;28;45558;-61
2023/01/25 05:12:33;;;;;;;;;57.75;41.00;;;;;3.82;76.24;102833.97;5055779;28;45220;-55
2023/01/25 05:14:58;;;;;;;;;42.25;37.25;;;;;3.76;76.63;102837.41;5057241;28;46073;-54
2023/01/25 05:17:23;;;;;;;;;48.75;38.75;;;;;3.82;76.56;102839.22;5060167;28;45160;-55
2023/01/25 05:19:49;;;;;;;;;57.75;47.00;;;;;3.79;76.81;102836.59;5055989;28;45370;-54
2023/01/25 05:22:16;;;;;;;;;48.50;40.75;;;;;3.87;76.55;102842.75;5056708;28;45705;-55
2023/01/25 05:24:43;;;;;;;;;55.50;39.50;;;;;3.95;75.67;102840.19;5055246;28;46191;-59
2023/01/25 05:27:11;;;;;;;;;55.75;46.00;;;;;3.93;76.26;102837.56;5056877;28;45456;-58
2023/01/25 05:29:39;;;;;;;;;45.00;40.50;;;;;3.91;76.08;102839.31;5055905;28;45307;-56
2023/01/25 05:32:07;;;;;;;;;38.25;30.00;;;;;3.90;76.34;102826.09;5069162;28;45526;-54
2023/01/25 05:34:33;;;;;;;;;46.25;32.50;;;;;4.00;75.97;102822.69;5077250;27;45416;-57
2023/01/25 05:36:59;;;;;;;;;56.00;42.25;;;;;3.85;75.63;102820.81;5077974;27;45338;-59
2023/01/25 05:39:25;;;;;;;;;46.75;39.25;;;;;3.84;75.83;102813.78;5064461;27;45382;-60
2023/01/25 05:41:50;;;;;;;;;37.75;35.75;;;;;3.91;76.08;102830.53;5057483;28;45328;-59
2023/01/25 05:44:16;;;;;;;;;47.75;38.50;;;;;3.85;75.99;102828.72;5069764;28;45330;-60
2023/01/25 05:46:42;;;;;;;;;58.75;41.00;;;;;3.78;76.13;102819.91;5076973;27;45547;-60
2023/01/25 05:49:08;;;;;;;;;58.75;39.50;;;;;3.71;76.19;102809.31;5055438;27;45473;-54
2023/01/25 05:51:34;;;;;;;;;48.00;40.50;;;;;3.83;75.65;102827.84;5056044;28;45529;-56
2023/01/25 05:54:00;;;;;;;;;41.50;38.75;;;;;3.85;76.36;102826.09;5056510;28;47101;-55
2023/01/25 05:56:25;;;;;;;;;49.00;42.00;;;;;3.82;76.45;102823.44;5056431;28;45530;-60
2023/01/25 05:58:55;;;;;;;;;50.75;41.25;;;;;3.81;76.94;102814.66;5056462;28;45337;-55
2023/01/25 06:01:21;;;;;;;;;51.75;40.50;;;;;3.80;75.22;102809.38;5056637;28;45550;-54
2023/01/25 06:03:47;;;;;;;;;50.75;34.00;;;;;3.98;76.28;102835.84;5055061;28;46251;-60
2023/01/25 06:06:12;;;;;;;;;41.75;35.25;;;;;3.94;75.86;102823.53;5055286;28;45223;-55
2023/01/25 06:08:38;;;;;;;;;28.25;20.75;;;;;3.97;75.46;102823.53;5055791;28;46578;-55
2023/01/25 06:11:08;;;;;;;;;42.50;34.50;;;;;4.03;75.67;102823.56;5055486;28;45528;-58
2023/01/25 06:13:34;;;;;;;;;32.75;31.25;;;;;4.00;74.45;102813.03;5056102;28;47082;-61
2023/01/25 06:15:59;;;;;;;;;38.00;29.75;;;;;4.03;74.41;102828.84;5056568;28;45360;-57
2023/01/25 06:18:25;;;;;;;;;35.25;29.75;;;;;4.07;74.82;102814.84;5055516;28;45756;-55
2023/01/25 06:20:50;;;;;;;;;34.50;27.25;;;;;4.12;74.63;102823.63;5054666;28;45483;-58
2023/01/25 06:23:16;;;;;;;;;34.75;33.75;;;;;4.18;75.10;102822.81;5054721;28;46354;-59
2023/01/25 06:25:42;;;;;;;;;30.25;28.75;;;;;4.21;73.52;102806.13;5054024;28;45338;-61
2023/01/25 06:28:07;;;;;;;;;20.00;15.00;;;;;4.18;72.06;102822.81;5055712;28;45517;-59
2023/01/25 06:30:33;;;;;;;;;22.50;19.00;;;;;4.10;72.05;102814.84;5056125;28;45215;-61
2023/01/25 06:32:59;;;;;;;;;25.00;21.50;;;;;4.21;72.70;102821.94;5055050;28;45260;-55
2023/01/25 06:35:25;;;;;;;;;20.75;17.00;;;;;4.12;71.10;102823.63;5056568;28;45347;-57
2023/01/25 06:37:55;;;;;;;;;20.75;17.00;;;;;4.10;72.32;102814.84;5054826;28;45412;-54
2023/01/25 06:40:20;;;;;;;;;21.50;17.75;;;;;4.15;72.75;102828.91;5059903;28;45288;-54
2023/01/25 06:42:46;;;;;;;;;18.75;13.00;;;;;4.25;71.38;102831.63;5057916;28;45919;-54
2023/01/25 06:45:11;;;;;;;;;14.00;14.00;;;;;4.16;71.11;102819.25;5059576;28;45326;-61
2023/01/25 06:47:36;;;;;;;;;16.75;15.00;;;;;4.16;70.63;102816.63;5059910;28;46666;-57
2023/01/25 06:50:02;;;;;;;;;24.25;14.75;;;;;4.17;70.42;102825.41;5058149;28;45468;-61
2023/01/25 06:52:29;;;;;;;;;14.00;14.00;;;;;4.17;70.35;102817.50;5059886;28;46177;-59
2023/01/25 06:54:54;;;;;;;;;19.50;16.00;;;;;4.01;71.33;102804.25;5072789;28;45263;-63
2023/01/25 06:57:20;;;;;;;;;16.25;12.00;;;;;4.01;71.44;102813.91;5058895;28;45203;-55
2023/01/25 06:59:45;;;;;;;;;24.25;8.50;;;;;4.03;71.02;102812.16;5060094;28;45544;-56
2023/01/25 07:02:14;;;;;;;;;20.75;19.00;;;;;4.12;70.40;102807.84;5059136;28;46058;-56
2023/01/25 07:04:40;;;;;;;;;18.75;11.00;;;;;4.21;70.88;102811.41;5058629;28;45444;-57
2023/01/25 07:07:08;;;;;;;;;21.25;18.25;;;;;4.24;70.44;102809.66;5057462;28;45297;-56
2023/01/25 07:09:35;;;;;;;;;24.50;13.50;;;;;4.25;70.76;102792.09;5059348;28;45417;-58
2023/01/25 07:12:01;;;;;;;;;16.75;11.00;;;;;4.33;70.49;102807.09;5058012;28;45259;-57
2023/01/25 07:14:27;;;;;;;;;11.00;11.00;;;;;4.28;69.67;102800.00;5057276;28;45453;-58
2023/01/25 07:16:52;;;;;;;;;14.25;10.25;;;;;4.26;69.89;102805.28;5058380;28;45363;-58
2023/01/25 07:19:18;;;;;;;;;15.25;13.25;;;;;4.14;69.98;102785.03;5058881;28;45343;-54
2023/01/25 07:21:43;;;;;;;;;19.00;16.75;;;;;4.24;70.03;102808.78;5059291;28;45570;-58
2023/01/25 07:24:14;;;;;;;;;15.25;14.50;;;;;4.31;69.86;102802.69;5059859;27;45589;-58
2023/01/25 07:26:39;;;;;;;;;19.75;12.75;;;;;4.23;69.58;102797.38;5058091;28;45511;-55
2023/01/25 07:29:05;;;;;;;;;15.50;12.50;;;;;4.27;69.69;102798.25;5059291;28;45606;-56
2023/01/25 07:31:31;;;;;;;;;18.00;16.50;;;;;4.33;69.86;102806.22;5059090;28;46234;-55
2023/01/25 07:33:57;;;;;;;;;24.75;17.00;;;;;4.17;69.92;102789.44;5057009;28;45464;-57
2023/01/25 07:36:23;;;;;;;;;23.50;19.75;;;;;4.21;69.49;102807.03;5058521;28;45441;-54
2023/01/25 07:38:54;;;;;;;;;22.00;18.00;;;;;4.23;69.07;102807.91;5059387;28;45599;-54
2023/01/25 07:41:19;;;;;;;;;19.50;15.25;;;;;4.12;69.48;102806.97;5058065;28;46323;-55
2023/01/25 07:43:45;;;;;;;;;23.50;18.25;;;;;4.10;69.54;102809.59;5058508;28;45961;-57
2023/01/25 07:46:13;;;;;;;;;17.50;16.50;;;;;4.07;69.93;102808.69;5057109;28;45602;-56
2023/01/25 07:48:40;;;;;;;;;21.75;20.75;;;;;4.05;70.59;102811.31;5057554;28;45567;-56
2023/01/25 07:51:11;;;;;;;;;17.00;17.00;;;;;4.08;70.80;102799.91;5054561;28;45902;-58
2023/01/25 07:53:41;;;;;;;;;22.00;20.00;;;;;4.04;70.46;102814.81;5057710;28;45488;-57
2023/01/25 07:56:09;;;;;;;;;19.75;16.75;;;;;3.89;70.56;102814.69;5057321;28;45274;-58
2023/01/25 07:58:34;;;;;;;;;32.75;26.50;;;;;3.77;71.13;102809.34;5057929;28;45693;-54
2023/01/25 08:01:07;;;;;;;;;23.75;21.50;;;;;3.72;71.13;102816.34;5057860;28;46179;-59
2023/01/25 08:03:33;;;;;;;;;27.00;22.75;;;;;3.82;71.33;102812.91;5057125;28;45257;-56
2023/01/25 08:05:58;;;;;;;;;25.25;20.75;;;;;3.89;71.65;102814.69;5057251;28;45370;-55
2023/01/25 08:08:24;;;;;;;;;23.00;17.75;;;;;3.94;71.25;102813.00;5054963;28;45667;-57
2023/01/25 08:10:49;;;;;;;;;24.00;20.00;;;;;3.83;70.86;102788.34;5057651;28;45400;-53
2023/01/25 08:13:14;;;;;;;;;25.50;22.25;;;;;3.93;71.19;102800.72;5057401;28;45448;-56
2023/01/25 08:15:40;;;;;;;;;30.50;22.00;;;;;4.02;71.07;102811.28;5055815;28;45792;-58
2023/01/25 08:18:05;;;;;;;;;20.50;18.50;;;;;4.00;70.47;102805.13;5057257;28;45756;-55
2023/01/25 08:20:31;;;;;;;;;29.25;21.25;;;;;4.09;70.58;102812.22;5057189;28;45633;-56
2023/01/25 08:22:56;;;;;;;;;29.50;25.25;;;;;4.09;70.47;102807.81;5054180;28;45484;-57
2023/01/25 08:25:21;;;;;;;;;34.75;27.25;;;;;4.08;71.14;102802.56;5055316;28;45515;-56
2023/01/25 08:27:47;;;;;;;;;36.50;23.00;;;;;4.00;71.92;102794.59;5054642;28;45512;-56
2023/01/25 08:30:13;;;;;;;;;26.75;23.75;;;;;3.93;71.21;102784.03;5056321;28;45750;-56
2023/01/25 08:32:38;;;;;;;;;27.00;22.00;;;;;4.09;71.45;102813.09;5058210;28;45526;-56
2023/01/25 08:35:04;;;;;;;;;35.50;29.50;;;;;4.03;70.96;102797.25;5055704;28;45558;-53
2023/01/25 08:37:29;;;;;;;;;32.25;26.50;;;;;3.98;71.09;102804.25;5058052;28;45367;-57
2023/01/25 08:39:58;;;;;;;;;28.75;25.75;;;;;3.78;72.27;102795.34;5055517;28;46203;-57
2023/01/25 08:42:24;;;;;;;;;24.25;21.00;;;;;3.74;72.41;102796.16;5040409;28;45439;-57
2023/01/25 08:44:50;;;;;;;;;26.00;21.50;;;;;3.61;72.36;102791.69;5055156;27;45516;-56
2023/01/25 08:47:15;;;;;;;;;32.25;24.25;;;;;3.59;72.15;102788.16;5066969;28;45382;-59
2023/01/25 08:49:41;;;;;;;;;32.00;26.00;;;;;3.60;72.64;102784.66;5073584;28;46326;-56
2023/01/25 08:52:06;;;;;;;;;29.75;29.00;;;;;3.82;71.81;102797.13;5058664;28;45806;-53
2023/01/25 08:54:32;;;;;;;;;44.00;36.75;;;;;3.80;72.07;102798.88;5057208;28;45433;-55
2023/01/25 08:56:57;;;;;;;;;25.00;23.00;;;;;3.81;71.54;102795.34;5057278;28;45717;-56
2023/01/25 08:59:23;;;;;;;;;22.75;18.75;;;;;3.77;71.88;102783.91;5081531;27;47809;-54
2023/01/25 09:01:48;;;;;;;;;33.25;28.00;;;;;3.77;71.86;102783.03;5051907;28;45294;-55
2023/01/25 09:04:14;;;;;;;;;27.75;21.25;;;;;3.81;71.90;102780.44;5058410;28;45394;-54
2023/01/25 09:06:39;;;;;;;;;28.75;24.50;;;;;3.81;71.98;102790.09;5059239;28;45505;-57
2023/01/25 09:09:05;;;;;;;;;36.50;23.75;;;;;3.77;71.67;102783.03;5084831;27;46572;-57
2023/01/25 09:11:33;;;;;;;;;27.75;22.75;;;;;3.62;71.57;102789.06;5068798;27;45527;-57
2023/01/25 09:13:58;;;;;;;;;36.00;28.75;;;;;3.52;71.91;102787.25;5068436;28;45330;-53
2023/01/25 09:16:27;;;;;;;;;42.00;27.50;;;;;3.44;72.43;102784.53;5067738;28;45517;-56
2023/01/25 09:18:55;;;;;;;;;19.75;19.50;;;;;3.32;72.71;102784.44;5064218;27;46157;-58
2023/01/25 09:21:21;;;;;;;;;30.75;23.00;;;;;3.38;72.51;102789.72;5049829;28;45437;-60
2023/01/25 09:23:49;;;;;;;;;17.75;16.75;;;;;3.38;72.64;102788.84;5077374;28;45303;-58
2023/01/25 09:26:14;;;;;;;;;26.75;23.50;;;;;3.35;72.88;102781.81;5078094;27;45635;-59
2023/01/25 09:28:42;;;;;;;;;28.00;19.75;;;;;3.43;72.16;102790.69;5072226;28;45785;-53
2023/01/25 09:31:10;;;;;;;;;25.25;21.25;;;;;3.20;72.48;102774.69;5057109;28;45374;-58
2023/01/25 09:33:37;;;;;;;;;26.00;18.00;;;;;3.26;72.86;102789.66;5082763;27;45609;-54
2023/01/25 09:36:03;;;;;;;;;22.50;16.25;;;;;3.16;72.56;102779.91;5056893;28;45595;-52
2023/01/25 09:38:29;;;;;;;;;24.75;17.75;;;;;3.11;72.78;102785.09;5056769;28;45309;-57
2023/01/25 09:41:01;;;;;;;;;29.75;24.00;;;;;3.19;72.73;102782.56;5056906;28;45332;-55
2023/01/25 09:43:26;;;;;;;;;22.25;21.50;;;;;3.34;72.47;102787.06;5057253;28;45271;-53
2023/01/25 09:45:52;;;;;;;;;30.50;27.00;;;;;3.42;72.08;102781.03;5057267;28;45684;-53
2023/01/25 09:48:58;;;;;;;;;31.25;23.25;;;;;3.49;71.96;102777.56;5054546;28;46702;-56
2023/01/25 09:51:41;;;;;;;;;32.00;21.25;;;;;3.55;71.28;102780.25;5056681;28;45272;-53
2023/01/25 09:54:09;;;;;;;;;27.25;22.25;;;;;3.52;71.94;102777.59;5056837;28;45177;-53
2023/01/25 09:56:37;;;;;;;;;34.50;24.50;;;;;3.56;71.20;102778.50;5057067;28;45595;-54
2023/01/25 09:59:16;;;;;;;;;26.50;22.75;;;;;3.62;71.34;102777.66;5056604;28;46910;-55
2023/01/25 10:01:52;;;;;;;;;32.00;23.75;;;;;3.59;71.19;102780.28;5057977;28;45224;-53
2023/01/25 10:04:18;;;;;;;;;33.00;26.50;;;;;3.73;71.44;102783.88;5056704;28;45433;-62
2023/01/25 10:06:48;;;;;;;;;18.25;11.50;;;;;3.67;71.51;102787.38;5057489;28;45497;-55
2023/01/25 10:09:31;;;;;;;;;40.75;28.00;;;;;3.59;71.17;102794.31;5056554;28;45385;-55
2023/01/25 10:12:18;;;;;;;;;27.00;22.00;;;;;3.59;71.68;102782.91;5056423;28;45395;-54
2023/01/25 10:14:43;;;;;;;;;26.50;24.25;;;;;3.54;71.28;102769.72;5056369;28;45350;-56
2023/01/25 10:17:30;;;;;;;;;33.00;25.25;;;;;3.62;71.82;102799.59;5056492;28;45631;-54
2023/01/25 10:20:23;;;;;;;;;42.50;24.00;;;;;3.46;71.77;102789.81;5056402;28;45402;-55
2023/01/25 10:23:35;;;;;;;;;38.75;32.75;;;;;3.50;72.07;102787.22;5055613;28;45491;-57
2023/01/25 10:26:18;;;;;;;;;34.00;25.50;;;;;3.36;71.69;102786.22;5044983;28;45468;-55
2023/01/25 10:29:05;;;;;;;;;41.00;34.00;;;;;3.41;71.78;102794.16;5056593;28;45293;-58
2023/01/25 10:34:57;;;;;;;;;33.75;21.25;;;;;3.33;72.22;102787.94;5056171;28;45394;-58
2023/01/25 10:37:29;;;;;;;;;32.50;28.50;;;;;3.31;71.83;102795.81;5056797;28;45488;-56
2023/01/25 10:39:55;;;;;;;;;33.00;30.75;;;;;3.38;71.86;102788.84;5056232;28;45528;-54
2023/01/25 10:42:23;;;;;;;;;26.75;22.00;;;;;3.44;71.56;102778.41;5056125;28;46035;-58
2023/01/25 10:44:49;;;;;;;;;42.25;34.25;;;;;3.30;71.42;102775.66;5055078;28;45364;-57
2023/01/25 10:47:24;;;;;;;;;41.50;30.25;;;;;3.37;72.32;102781.84;5056067;28;45666;-56
2023/01/25 10:49:54;;;;;;;;;37.50;28.50;;;;;3.36;72.14;102770.44;5056795;28;45477;-55
2023/01/25 10:52:25;;;;;;;;;44.75;31.25;;;;;3.38;71.73;102783.59;5055997;28;45349;-57
2023/01/25 10:55:15;;;;;;;;;34.75;28.50;;;;;3.40;72.00;102777.50;5054224;28;45366;-57
2023/01/25 10:57:47;;;;;;;;;35.25;28.75;;;;;3.40;71.32;102766.97;5054263;28;45492;-60
2023/01/25 11:00:23;;;;;;;;;33.25;27.50;;;;;3.33;71.51;102775.69;5056305;28;45525;-61
2023/01/25 11:02:49;;;;;;;;;32.00;27.75;;;;;3.32;71.76;102773.91;5054594;28;47141;-58
2023/01/25 11:05:17;;;;;;;;;33.00;26.25;;;;;3.27;71.77;102754.59;5056267;28;45701;-57
2023/01/25 11:07:47;;;;;;;;;41.75;33.50;;;;;3.33;71.76;102759.91;5054511;28;45593;-61
2023/01/25 11:10:35;;;;;;;;;38.75;30.75;;;;;3.26;71.78;102763.34;5054703;28;45426;-53
2023/01/25 11:13:33;;;;;;;;;41.25;31.50;;;;;3.41;71.65;102754.72;5055949;28;46138;-59
2023/01/25 11:16:03;;;;;;;;;36.50;28.75;;;;;3.53;70.95;102754.81;5063754;28;45329;-54
2023/01/25 11:18:33;;;;;;;;;31.00;27.75;;;;;3.55;70.52;102751.31;5091943;27;45204;-53
2023/01/25 11:21:22;;;;;;;;;52.75;31.25;;;;;3.30;71.22;102733.59;5075100;28;45341;-53
2023/01/25 11:24:16;;;;;;;;;42.00;33.25;;;;;3.21;72.32;102729.13;5065785;27;46352;-56